createdAt,value
2018-09-29T00:00:44.539Z,8.40
2018-09-29T00:03:12.942Z,8.28
2018-09-29T00:05:41.244Z,8.08
2018-09-29T00:08:09.602Z,8.37
2018-09-29T00:10:37.976Z,8.23
2018-09-29T00:13:06.366Z,8.33
2018-09-29T00:15:34.812Z,8.07
2018-09-29T00:18:04.232Z,7.80
2018-09-29T00:20:32.585Z,7.75
2018-09-29T00:23:00.928Z,7.78
2018-09-29T00:25:29.291Z,7.61
2018-09-29T00:27:57.671Z,7.69
2018-09-29T00:30:26.042Z,8.17
2018-09-29T00:32:54.459Z,7.87
2018-09-29T00:35:22.819Z,7.57
2018-09-29T00:37:51.182Z,7.57
2018-09-29T00:40:19.567Z,7.93
2018-09-29T00:42:47.963Z,7.60
2018-09-29T00:45:20.255Z,7.26
2018-09-29T00:47:48.591Z,7.74
2018-09-29T00:50:16.919Z,7.73
2018-09-29T00:52:45.292Z,7.51
2018-09-29T00:55:13.652Z,7.75
2018-09-29T00:57:42.075Z,7.73
2018-09-29T01:00:10.396Z,7.64
2018-09-29T01:02:38.717Z,7.76
2018-09-29T01:05:07.035Z,7.62
2018-09-29T01:07:35.340Z,7.44
2018-09-29T01:10:03.711Z,7.58
2018-09-29T01:12:32.023Z,7.21
2018-09-29T01:15:00.359Z,7.52
2018-09-29T01:17:28.643Z,7.29
2018-09-29T01:19:56.948Z,7.29
2018-09-29T01:22:26.264Z,7.72
2018-09-29T01:24:54.603Z,7.21
2018-09-29T01:27:22.899Z,7.33
2018-09-29T01:29:51.213Z,7.18
2018-09-29T01:32:19.517Z,7.08
2018-09-29T01:34:47.919Z,7.27
2018-09-29T01:37:16.315Z,7.12
2018-09-29T01:39:44.620Z,7.23
2018-09-29T01:42:12.988Z,7.49
2018-09-29T01:44:41.312Z,7.17
2018-09-29T01:47:09.619Z,7.34
2018-09-29T01:49:37.939Z,7.59
2018-09-29T01:52:06.317Z,7.05
2018-09-29T01:54:34.711Z,7.43
2018-09-29T01:57:03.078Z,7.94
2018-09-29T01:59:31.478Z,7.86
2018-09-29T02:01:59.864Z,7.76
2018-09-29T02:04:28.249Z,7.23
2018-09-29T02:06:56.672Z,7.49
2018-09-29T02:09:25.135Z,7.46
2018-09-29T02:11:53.440Z,7.63
2018-09-29T02:14:22.001Z,7.55
2018-09-29T02:16:50.348Z,7.77
2018-09-29T02:19:18.743Z,7.38
2018-09-29T02:21:47.109Z,7.50
2018-09-29T02:24:16.466Z,7.28
2018-09-29T02:26:44.872Z,7.04
2018-09-29T02:29:13.316Z,7.05
2018-09-29T02:31:41.712Z,7.01
2018-09-29T02:34:10.106Z,6.96
2018-09-29T02:36:38.447Z,7.35
2018-09-29T02:39:09.333Z,7.47
2018-09-29T02:41:37.773Z,7.36
2018-09-29T02:44:06.152Z,7.57
2018-09-29T02:46:34.493Z,7.74
2018-09-29T02:49:02.855Z,7.30
2018-09-29T02:51:31.221Z,7.24
2018-09-29T02:53:59.559Z,7.17
2018-09-29T02:56:27.896Z,7.53
2018-09-29T02:58:56.276Z,6.89
2018-09-29T03:01:24.801Z,7.28
2018-09-29T03:03:53.152Z,6.92
2018-09-29T03:06:21.991Z,7.23
2018-09-29T03:08:50.368Z,7.33
2018-09-29T03:11:18.795Z,6.70
2018-09-29T03:13:47.176Z,6.89
2018-09-29T03:16:15.572Z,7.05
2018-09-29T03:18:43.928Z,7.55
2018-09-29T03:21:12.324Z,7.25
2018-09-29T03:23:40.676Z,6.96
2018-09-29T03:26:09.047Z,7.14
2018-09-29T03:28:37.412Z,6.98
2018-09-29T03:31:06.903Z,7.24
2018-09-29T03:33:35.268Z,7.30
2018-09-29T03:36:03.572Z,7.20
2018-09-29T03:38:31.940Z,7.09
2018-09-29T03:41:01.363Z,7.08
2018-09-29T03:43:29.746Z,6.96
2018-09-29T03:45:58.127Z,7.28
2018-09-29T03:48:27.443Z,7.14
2018-09-29T03:50:55.779Z,7.16
2018-09-29T03:53:24.196Z,6.85
2018-09-29T03:55:52.528Z,6.54
2018-09-29T03:58:21.196Z,6.55
2018-09-29T04:00:49.751Z,6.59
2018-09-29T04:03:18.189Z,6.66
2018-09-29T04:05:46.562Z,6.81
2018-09-29T04:08:14.931Z,6.44
2018-09-29T04:10:43.300Z,6.39
2018-09-29T04:13:11.810Z,6.44
2018-09-29T04:15:40.129Z,6.60
2018-09-29T04:18:08.452Z,6.41
2018-09-29T04:20:36.789Z,6.32
2018-09-29T04:23:05.101Z,6.03
2018-09-29T04:25:33.402Z,6.70
2018-09-29T04:28:01.736Z,6.42
2018-09-29T04:30:31.106Z,6.30
2018-09-29T04:32:59.470Z,6.17
2018-09-29T04:35:27.803Z,6.43
2018-09-29T04:37:56.168Z,6.68
2018-09-29T04:40:24.597Z,6.62
2018-09-29T04:42:52.935Z,6.71
2018-09-29T04:45:21.299Z,6.71
2018-09-29T04:47:49.609Z,6.13
2018-09-29T04:50:18.030Z,6.17
2018-09-29T04:52:46.427Z,6.17
2018-09-29T04:55:14.770Z,6.26
2018-09-29T04:57:43.103Z,6.34
2018-09-29T05:00:11.531Z,6.27
2018-09-29T05:02:39.922Z,6.58
2018-09-29T05:05:09.244Z,6.19
2018-09-29T05:07:37.574Z,6.51
2018-09-29T05:10:05.984Z,6.23
2018-09-29T05:12:34.319Z,6.14
2018-09-29T05:15:02.631Z,6.48
2018-09-29T05:17:30.935Z,6.15
2018-09-29T05:19:59.243Z,6.57
2018-09-29T05:22:27.537Z,6.51
2018-09-29T05:24:55.875Z,6.14
2018-09-29T05:27:24.223Z,6.20
2018-09-29T05:29:55.952Z,6.57
2018-09-29T05:32:24.336Z,6.44
2018-09-29T05:34:52.697Z,6.54
2018-09-29T05:37:21.092Z,6.40
2018-09-29T05:39:49.447Z,6.93
2018-09-29T05:42:17.800Z,6.54
2018-09-29T05:44:46.144Z,7.01
2018-09-29T05:47:14.524Z,6.85
2018-09-29T05:49:42.938Z,6.79
2018-09-29T05:52:11.382Z,6.92
2018-09-29T05:54:39.716Z,6.69
2018-09-29T05:57:08.131Z,6.52
2018-09-29T05:59:36.535Z,6.44
2018-09-29T06:02:04.948Z,6.55
2018-09-29T06:04:33.413Z,6.53
2018-09-29T06:07:01.836Z,6.89
2018-09-29T06:09:30.128Z,6.68
2018-09-29T06:11:58.426Z,7.24
2018-09-29T06:14:26.816Z,7.19
2018-09-29T06:16:55.191Z,7.09
2018-09-29T06:19:23.561Z,6.70
2018-09-29T06:21:51.920Z,7.15
2018-09-29T06:24:20.419Z,7.15
2018-09-29T06:26:48.769Z,7.34
2018-09-29T06:29:17.089Z,8.70
2018-09-29T06:31:45.417Z,10.04
2018-09-29T06:34:13.812Z,12.80
2018-09-29T06:36:42.115Z,14.30
2018-09-29T06:39:11.621Z,13.93
2018-09-29T06:41:39.958Z,16.24
2018-09-29T06:44:08.274Z,16.51
2018-09-29T06:46:36.688Z,15.47
2018-09-29T06:49:05.049Z,15.74
2018-09-29T06:51:33.668Z,17.55
2018-09-29T06:54:02.008Z,18.18
2018-09-29T06:56:30.345Z,18.05
2018-09-29T06:58:58.680Z,19.70
2018-09-29T07:01:27.000Z,20.21
2018-09-29T07:03:55.352Z,17.91
2018-09-29T07:06:23.728Z,19.30
2018-09-29T07:08:52.060Z,18.08
2018-09-29T07:11:20.474Z,15.05
2018-09-29T07:13:48.849Z,14.18
2018-09-29T07:16:17.307Z,13.92
2018-09-29T07:18:45.717Z,13.37
2018-09-29T07:21:14.117Z,13.41
2018-09-29T07:23:42.641Z,12.43
2018-09-29T07:26:11.020Z,11.38
2018-09-29T07:28:39.496Z,11.73
2018-09-29T07:31:07.914Z,11.85
2018-09-29T07:33:36.500Z,12.10
2018-09-29T07:36:04.871Z,11.87
2018-09-29T07:38:33.220Z,12.28
2018-09-29T07:41:01.568Z,12.00
2018-09-29T07:43:29.928Z,12.68
2018-09-29T07:45:58.300Z,12.83
2018-09-29T07:48:26.714Z,12.12
2018-09-29T07:50:55.076Z,12.84
2018-09-29T07:53:23.478Z,12.61
2018-09-29T07:55:51.879Z,12.45
2018-09-29T07:58:20.345Z,12.67
2018-09-29T08:00:48.889Z,12.51
2018-09-29T08:03:17.284Z,13.18
2018-09-29T08:05:45.660Z,13.26
2018-09-29T08:08:14.041Z,12.64
2018-09-29T08:10:42.505Z,14.09
2018-09-29T08:13:10.942Z,14.55
2018-09-29T08:15:40.304Z,14.87
2018-09-29T08:18:08.692Z,15.47
2018-09-29T08:20:37.040Z,17.24
2018-09-29T08:23:05.444Z,19.07
2018-09-29T08:25:33.804Z,19.95
2018-09-29T08:28:02.161Z,19.99
2018-09-29T08:30:30.509Z,20.65
2018-09-29T08:32:58.864Z,21.73
2018-09-29T08:35:27.348Z,22.24
2018-09-29T08:37:55.743Z,22.26
2018-09-29T08:40:24.089Z,22.86
2018-09-29T08:42:52.501Z,23.31
2018-09-29T08:45:20.856Z,24.90
2018-09-29T08:47:49.221Z,25.26
2018-09-29T08:50:17.580Z,25.38
2018-09-29T08:52:45.977Z,23.47
2018-09-29T08:55:14.384Z,22.92
2018-09-29T08:57:42.710Z,22.29
2018-09-29T09:00:11.002Z,23.07
2018-09-29T09:02:39.322Z,22.91
2018-09-29T09:05:07.629Z,23.82
2018-09-29T09:07:35.989Z,24.16
2018-09-29T09:10:04.380Z,22.12
2018-09-29T09:12:32.844Z,23.28
2018-09-29T09:15:01.248Z,21.82
2018-09-29T09:17:29.600Z,24.56
2018-09-29T09:19:57.944Z,23.72
2018-09-29T09:22:26.270Z,24.99
2018-09-29T09:24:54.678Z,25.83
2018-09-29T09:27:22.992Z,25.41
2018-09-29T09:29:51.359Z,24.43
2018-09-29T09:32:19.781Z,25.24
2018-09-29T09:34:48.155Z,25.59
2018-09-29T09:37:16.485Z,25.63
2018-09-29T09:39:44.878Z,26.10
2018-09-29T09:42:13.277Z,24.60
2018-09-29T09:44:41.673Z,25.26
2018-09-29T09:47:10.092Z,25.26
2018-09-29T09:49:38.847Z,25.99
2018-09-29T09:52:07.376Z,26.73
2018-09-29T09:54:35.784Z,27.08
2018-09-29T09:57:04.242Z,27.15
2018-09-29T09:59:35.464Z,26.73
2018-09-29T10:02:08.964Z,27.09
2018-09-29T10:04:37.266Z,26.33
2018-09-29T10:07:07.346Z,25.72
2018-09-29T10:09:36.420Z,25.59
2018-09-29T10:12:05.007Z,25.64
2018-09-29T10:14:33.521Z,24.83
2018-09-29T10:17:01.985Z,24.23
2018-09-29T10:19:30.588Z,25.63
2018-09-29T10:21:59.060Z,25.15
2018-09-29T10:24:27.536Z,25.15
2018-09-29T10:26:56.002Z,24.58
2018-09-29T10:29:24.431Z,24.74
2018-09-29T10:31:52.869Z,26.49
2018-09-29T10:34:21.371Z,26.23
2018-09-29T10:36:49.840Z,26.77
2018-09-29T10:39:18.305Z,25.90
2018-09-29T10:41:47.993Z,24.39
2018-09-29T10:44:16.419Z,23.75
2018-09-29T10:46:44.760Z,24.51
2018-09-29T10:49:13.104Z,22.79
2018-09-29T10:51:41.473Z,21.95
2018-09-29T10:54:09.968Z,21.17
2018-09-29T10:56:38.441Z,20.48
2018-09-29T10:59:07.083Z,18.71
2018-09-29T11:01:35.472Z,19.27
2018-09-29T11:04:03.980Z,18.12
2018-09-29T11:06:32.576Z,18.68
2018-09-29T11:09:01.006Z,17.91
2018-09-29T11:11:29.452Z,18.37
2018-09-29T11:13:58.669Z,19.70
2018-09-29T11:16:27.290Z,21.09
2018-09-29T11:18:56.189Z,21.46
2018-09-29T11:21:24.789Z,21.99
2018-09-29T11:23:53.305Z,22.86
2018-09-29T11:26:21.756Z,23.61
2018-09-29T11:28:50.190Z,24.44
2018-09-29T11:31:18.837Z,24.81
2018-09-29T11:33:47.209Z,23.87
2018-09-29T11:36:15.720Z,24.32
2018-09-29T11:38:44.207Z,23.84
2018-09-29T11:41:12.665Z,23.75
2018-09-29T11:43:41.115Z,23.50
2018-09-29T11:46:09.593Z,23.71
2018-09-29T11:48:38.145Z,24.14
2018-09-29T11:51:06.832Z,24.71
2018-09-29T11:53:35.181Z,25.75
2018-09-29T11:56:03.704Z,24.91
2018-09-29T11:58:32.264Z,25.54
2018-09-29T12:01:00.696Z,24.95
2018-09-29T12:03:30.003Z,24.30
2018-09-29T12:05:58.477Z,25.49
2018-09-29T12:08:26.916Z,26.12
2018-09-29T12:10:55.396Z,25.59
2018-09-29T12:13:23.954Z,26.46
2018-09-29T12:15:52.548Z,25.96
2018-09-29T12:18:21.090Z,25.91
2018-09-29T12:20:49.521Z,26.26
2018-09-29T12:23:18.000Z,26.68
2018-09-29T12:25:46.448Z,24.92
2018-09-29T12:28:14.916Z,24.77
2018-09-29T12:30:43.518Z,25.32
2018-09-29T12:33:11.978Z,24.27
2018-09-29T12:35:41.282Z,22.66
2018-09-29T12:38:09.721Z,21.57
2018-09-29T12:40:38.153Z,21.58
2018-09-29T12:43:06.620Z,19.93
2018-09-29T12:45:35.044Z,20.10
2018-09-29T12:48:03.399Z,19.80
2018-09-29T12:50:31.786Z,19.64
2018-09-29T12:53:00.273Z,20.04
2018-09-29T12:55:28.652Z,20.10
2018-09-29T12:57:57.077Z,20.00
2018-09-29T13:00:25.563Z,19.80
2018-09-29T13:02:53.996Z,18.11
2018-09-29T13:05:22.485Z,19.26
2018-09-29T13:07:50.873Z,18.84
2018-09-29T13:10:19.333Z,19.02
2018-09-29T13:12:47.710Z,19.15
2018-09-29T13:15:16.157Z,20.22
2018-09-29T13:17:44.605Z,20.55
2018-09-29T13:20:13.085Z,19.80
2018-09-29T13:22:41.544Z,19.52
2018-09-29T13:25:09.993Z,18.31
2018-09-29T13:27:38.495Z,18.48
2018-09-29T13:30:06.957Z,18.76
2018-09-29T13:32:35.485Z,18.83
2018-09-29T13:35:03.988Z,19.17
2018-09-29T13:37:32.423Z,18.96
2018-09-29T13:40:00.933Z,18.87
2018-09-29T13:42:29.372Z,18.50
2018-09-29T13:44:57.836Z,19.29
2018-09-29T13:47:26.394Z,18.40
2018-09-29T13:49:54.832Z,19.29
2018-09-29T13:52:23.385Z,18.83
2018-09-29T13:54:51.815Z,18.82
2018-09-29T13:57:20.318Z,18.72
2018-09-29T13:59:48.880Z,19.27
2018-09-29T14:02:17.357Z,18.71
2018-09-29T14:04:45.728Z,18.83
2018-09-29T14:07:14.200Z,18.40
2018-09-29T14:09:42.792Z,18.13
2018-09-29T14:12:11.302Z,17.89
2018-09-29T14:14:39.812Z,18.20
2018-09-29T14:17:08.247Z,18.82
2018-09-29T14:19:36.679Z,18.93
2018-09-29T14:22:05.190Z,18.34
2018-09-29T14:24:33.775Z,17.64
2018-09-29T14:27:02.207Z,17.41
2018-09-29T14:29:30.612Z,18.21
2018-09-29T14:31:59.038Z,18.44
2018-09-29T14:34:27.693Z,18.23
2018-09-29T14:36:56.180Z,18.09
2018-09-29T14:39:24.657Z,18.68
2018-09-29T14:41:53.181Z,18.98
2018-09-29T14:44:21.625Z,18.60
2018-09-29T14:46:50.101Z,18.87
2018-09-29T14:49:18.760Z,17.86
2018-09-29T14:51:47.340Z,18.78
2018-09-29T14:54:15.949Z,18.02
2018-09-29T14:56:44.439Z,18.49
2018-09-29T14:59:12.956Z,18.71
2018-09-29T15:01:41.477Z,18.63
2018-09-29T15:04:09.988Z,18.53
2018-09-29T15:06:38.480Z,18.93
2018-09-29T15:09:09.198Z,17.82
2018-09-29T15:11:37.732Z,17.99
2018-09-29T15:14:06.208Z,18.77
2018-09-29T15:16:37.515Z,18.28
2018-09-29T15:19:06.100Z,18.32
2018-09-29T15:21:34.616Z,18.12
2018-09-29T15:24:03.085Z,18.36
2018-09-29T15:26:31.807Z,17.95
2018-09-29T15:29:00.300Z,18.64
2018-09-29T15:31:28.795Z,18.06
2018-09-29T15:33:57.288Z,18.56
2018-09-29T15:36:25.744Z,18.49
2018-09-29T15:38:54.362Z,18.35
2018-09-29T15:41:22.844Z,18.04
2018-09-29T15:43:51.251Z,18.36
2018-09-29T15:46:19.717Z,18.39
2018-09-29T15:48:51.254Z,17.90
2018-09-29T15:51:20.398Z,18.05
2018-09-29T15:53:48.868Z,17.95
2018-09-29T15:56:17.316Z,18.29
2018-09-29T15:58:45.721Z,17.85
2018-09-29T16:01:14.117Z,18.06
2018-09-29T16:03:42.520Z,18.18
2018-09-29T16:06:11.134Z,17.80
2018-09-29T16:08:39.571Z,17.83
2018-09-29T16:11:08.005Z,17.27
2018-09-29T16:13:36.536Z,17.57
2018-09-29T16:16:04.968Z,17.61
2018-09-29T16:18:40.840Z,17.21
2018-09-29T16:21:09.339Z,16.95
2018-09-29T16:23:37.798Z,17.11
2018-09-29T16:26:06.603Z,16.91
2018-09-29T16:28:35.046Z,16.76
2018-09-29T16:31:10.144Z,16.90
2018-09-29T16:33:38.617Z,16.61
2018-09-29T16:36:07.652Z,16.90
2018-09-29T16:38:36.305Z,16.52
2018-09-29T16:41:05.376Z,16.55
2018-09-29T16:43:34.100Z,16.32
2018-09-29T16:46:02.627Z,15.97
2018-09-29T16:48:31.112Z,15.50
2018-09-29T16:50:59.548Z,15.28
2018-09-29T16:53:28.001Z,15.26
2018-09-29T16:55:56.449Z,15.18
2018-09-29T16:58:24.968Z,15.06
2018-09-29T17:00:53.392Z,14.72
2018-09-29T17:03:21.862Z,14.40
2018-09-29T17:05:50.328Z,14.19
2018-09-29T17:08:18.934Z,14.04
2018-09-29T17:10:47.399Z,13.90
2018-09-29T17:13:15.880Z,14.05
2018-09-29T17:15:44.440Z,13.77
2018-09-29T17:18:12.923Z,13.46
2018-09-29T17:20:41.409Z,13.54
2018-09-29T17:23:09.908Z,13.14
2018-09-29T17:25:38.337Z,13.01
2018-09-29T17:28:06.861Z,12.65
2018-09-29T17:30:35.316Z,12.85
2018-09-29T17:33:03.787Z,12.83
2018-09-29T17:35:32.227Z,12.42
2018-09-29T17:38:06.869Z,12.52
2018-09-29T17:40:35.280Z,12.68
2018-09-29T17:43:03.781Z,12.62
2018-09-29T17:45:32.383Z,12.44
2018-09-29T17:48:00.804Z,12.42
2018-09-29T17:50:29.291Z,12.06
2018-09-29T17:52:57.757Z,11.94
2018-09-29T17:55:26.436Z,11.91
2018-09-29T17:57:54.912Z,11.99
2018-09-29T18:00:23.368Z,11.83
2018-09-29T18:02:51.852Z,11.89
2018-09-29T18:05:20.323Z,11.72
2018-09-29T18:07:48.840Z,11.67
2018-09-29T18:10:17.365Z,11.39
2018-09-29T18:12:45.867Z,11.58
2018-09-29T18:15:14.365Z,11.39
2018-09-29T18:17:42.835Z,11.78
2018-09-29T18:20:11.381Z,11.45
2018-09-29T18:22:39.852Z,11.08
2018-09-29T18:25:08.439Z,10.78
2018-09-29T18:27:36.893Z,11.18
2018-09-29T18:30:05.692Z,11.17
2018-09-29T18:32:34.181Z,11.23
2018-09-29T18:35:02.576Z,10.72
2018-09-29T18:37:30.983Z,10.85
2018-09-29T18:39:59.376Z,10.34
2018-09-29T18:42:27.778Z,10.45
2018-09-29T18:44:56.237Z,10.31
2018-09-29T18:47:24.662Z,10.28
2018-09-29T18:49:53.112Z,10.39
2018-09-29T18:52:21.564Z,10.67
2018-09-29T18:54:49.996Z,10.37
2018-09-29T18:57:18.480Z,10.37
2018-09-29T18:59:53.188Z,10.04
2018-09-29T19:02:21.625Z,10.19
2018-09-29T19:04:50.086Z,10.36
2018-09-29T19:07:18.604Z,10.26
2018-09-29T19:09:47.073Z,10.09
2018-09-29T19:12:15.512Z,10.03
2018-09-29T19:14:44.868Z,10.19
2018-09-29T19:17:13.412Z,10.63
2018-09-29T19:19:41.938Z,10.13
2018-09-29T19:22:10.553Z,10.03
2018-09-29T19:24:39.088Z,9.62
2018-09-29T19:27:07.532Z,9.83
2018-09-29T19:29:35.973Z,9.89
2018-09-29T19:32:04.458Z,9.57
2018-09-29T19:34:32.892Z,9.43
2018-09-29T19:37:01.357Z,9.36
2018-09-29T19:39:29.902Z,9.66
2018-09-29T19:41:58.300Z,9.67
2018-09-29T19:44:26.736Z,9.53
2018-09-29T19:46:55.251Z,9.41
2018-09-29T19:49:23.768Z,9.28
2018-09-29T19:51:52.191Z,9.50
2018-09-29T19:54:20.625Z,9.61
2018-09-29T19:56:49.173Z,9.62
2018-09-29T19:59:17.582Z,9.14
2018-09-29T20:01:45.997Z,9.33
2018-09-29T20:04:14.684Z,9.72
2018-09-29T20:06:43.144Z,9.39
2018-09-29T20:09:11.818Z,9.20
2018-09-29T20:11:40.300Z,9.31
2018-09-29T20:14:08.756Z,9.10
2018-09-29T20:16:37.329Z,9.10
2018-09-29T20:19:05.853Z,9.04
2018-09-29T20:21:34.360Z,8.68
2018-09-29T20:24:02.842Z,8.97
2018-09-29T20:26:31.456Z,9.31
2018-09-29T20:28:59.910Z,9.32
2018-09-29T20:31:28.543Z,8.96
2018-09-29T20:33:57.028Z,8.77
2018-09-29T20:36:25.510Z,9.04
2018-09-29T20:38:53.915Z,9.07
2018-09-29T20:41:22.405Z,8.67
2018-09-29T20:43:50.851Z,8.77
2018-09-29T20:46:19.356Z,9.08
2018-09-29T20:48:47.823Z,8.74
2018-09-29T20:51:16.201Z,8.43
2018-09-29T20:53:44.652Z,8.59
2018-09-29T20:56:13.023Z,8.42
2018-09-29T20:58:41.319Z,8.43
2018-09-29T21:01:09.688Z,8.78
2018-09-29T21:03:38.047Z,8.57
2018-09-29T21:06:06.411Z,8.80
2018-09-29T21:08:34.901Z,8.95
2018-09-29T21:11:03.348Z,8.91
2018-09-29T21:13:31.972Z,8.82
2018-09-29T21:16:00.566Z,8.65
2018-09-29T21:18:29.075Z,8.61
2018-09-29T21:20:57.552Z,8.17
2018-09-29T21:23:26.101Z,8.68
2018-09-29T21:25:54.633Z,8.44
2018-09-29T21:28:23.203Z,8.69
2018-09-29T21:30:51.613Z,8.43
2018-09-29T21:33:20.133Z,8.65
2018-09-29T21:35:48.600Z,8.24
2018-09-29T21:38:17.111Z,8.20
2018-09-29T21:40:45.524Z,8.50
2018-09-29T21:43:13.917Z,8.01
2018-09-29T21:45:42.306Z,8.14
2018-09-29T21:48:10.730Z,7.79
2018-09-29T21:50:39.136Z,7.87
2018-09-29T21:53:07.595Z,7.99
2018-09-29T21:55:36.012Z,8.29
2018-09-29T21:58:04.444Z,8.48
2018-09-29T22:00:38.100Z,8.30
2018-09-29T22:03:06.810Z,8.02
2018-09-29T22:05:35.414Z,8.27
2018-09-29T22:08:03.855Z,8.13
2018-09-29T22:10:32.280Z,8.06
2018-09-29T22:13:00.723Z,8.07
2018-09-29T22:15:29.112Z,8.18
2018-09-29T22:17:57.524Z,8.51
2018-09-29T22:20:25.947Z,8.15
2018-09-29T22:22:54.388Z,7.87
2018-09-29T22:25:22.808Z,7.86
2018-09-29T22:27:51.315Z,7.82
2018-09-29T22:30:19.741Z,7.83
2018-09-29T22:32:48.100Z,8.15
2018-09-29T22:35:16.627Z,7.95
2018-09-29T22:37:45.096Z,7.92
2018-09-29T22:40:13.543Z,8.02
2018-09-29T22:42:41.961Z,8.05
2018-09-29T22:45:10.445Z,7.80
2018-09-29T22:47:38.919Z,7.71
2018-09-29T22:50:07.416Z,7.78
2018-09-29T22:52:35.917Z,8.24
2018-09-29T22:55:04.347Z,8.18
2018-09-29T22:57:32.824Z,7.93
2018-09-29T23:00:01.233Z,8.13
2018-09-29T23:02:29.720Z,8.06
2018-09-29T23:04:58.112Z,7.90
2018-09-29T23:07:26.656Z,7.66
2018-09-29T23:09:55.150Z,8.32
2018-09-29T23:12:23.585Z,7.64
2018-09-29T23:14:52.073Z,8.07
2018-09-29T23:17:20.593Z,7.93
2018-09-29T23:19:49.053Z,7.63
2018-09-29T23:22:17.440Z,7.86
2018-09-29T23:24:45.930Z,8.16
2018-09-29T23:27:14.427Z,7.86
2018-09-29T23:29:42.991Z,8.06
2018-09-29T23:32:11.496Z,7.79
2018-09-29T23:34:39.837Z,7.54
2018-09-29T23:37:08.215Z,7.68
2018-09-29T23:39:36.661Z,7.71
2018-09-29T23:42:05.140Z,7.66
2018-09-29T23:44:33.675Z,7.62
2018-09-29T23:47:02.068Z,7.53
2018-09-29T23:49:30.639Z,7.83
2018-09-29T23:51:59.022Z,7.75
2018-09-29T23:54:27.468Z,7.95
2018-09-29T23:56:55.858Z,7.90
2018-09-29T23:59:24.300Z,7.72
